sensor_id;sensor_type;location;lat;lon;timestamp;P1;durP1;ratioP1;P2;durP2;ratioP2
20138;SDS011;10230;51.502;10.800;2023-02-28T03:32:08;0.93;;;0.43;;
20138;SDS011;10230;51.502;10.800;2023-02-28T03:34:47;0.10;;;0.10;;
20138;SDS011;10230;51.502;10.800;2023-02-28T03:37:30;1.27;;;0.70;;
20138;SDS011;10230;51.502;10.800;2023-02-28T03:40:10;2.70;;;0.60;;
20138;SDS011;10230;51.502;10.800;2023-02-28T03:42:39;3.30;;;0.50;;
20138;SDS011;10230;51.502;10.800;2023-02-28T03:45:13;0.80;;;0.73;;
20138;SDS011;10230;51.502;10.800;2023-02-28T03:52:44;1.37;;;0.70;;
20138;SDS011;10230;51.502;10.800;2023-02-28T03:55:13;0.63;;;0.60;;
20138;SDS011;10230;51.502;10.800;2023-02-28T04:00:34;0.80;;;0.40;;
20138;SDS011;10230;51.502;10.800;2023-02-28T04:03:03;3.30;;;0.53;;
20138;SDS011;10230;51.502;10.800;2023-02-28T04:05:30;2.87;;;0.37;;
20138;SDS011;10230;51.502;10.800;2023-02-28T04:08:03;0.87;;;0.50;;
20138;SDS011;10230;51.502;10.800;2023-02-28T04:10:31;0.50;;;0.50;;
20138;SDS011;10230;51.502;10.800;2023-02-28T04:12:56;0.70;;;0.50;;
20138;SDS011;10230;51.502;10.800;2023-02-28T04:15:22;0.53;;;0.40;;
20138;SDS011;10230;51.502;10.800;2023-02-28T04:17:49;1.70;;;0.57;;
20138;SDS011;10230;51.502;10.800;2023-02-28T04:20:15;0.90;;;0.60;;
20138;SDS011;10230;51.502;10.800;2023-02-28T04:22:41;1.03;;;0.47;;
20138;SDS011;10230;51.502;10.800;2023-02-28T04:25:07;1.43;;;0.60;;
20138;SDS011;10230;51.502;10.800;2023-02-28T04:27:33;1.20;;;0.77;;
20138;SDS011;10230;51.502;10.800;2023-02-28T04:29:59;2.60;;;0.80;;
20138;SDS011;10230;51.502;10.800;2023-02-28T04:32:25;1.47;;;0.50;;
20138;SDS011;10230;51.502;10.800;2023-02-28T04:34:51;1.53;;;0.60;;
20138;SDS011;10230;51.502;10.800;2023-02-28T04:37:16;2.17;;;1.00;;
20138;SDS011;10230;51.502;10.800;2023-02-28T04:39:42;1.30;;;0.60;;
20138;SDS011;10230;51.502;10.800;2023-02-28T04:42:08;0.60;;;0.50;;
20138;SDS011;10230;51.502;10.800;2023-02-28T04:44:34;1.27;;;0.60;;
20138;SDS011;10230;51.502;10.800;2023-02-28T04:47:00;1.17;;;0.67;;
20138;SDS011;10230;51.502;10.800;2023-02-28T04:49:25;1.67;;;0.90;;
20138;SDS011;10230;51.502;10.800;2023-02-28T04:51:51;5.43;;;1.43;;
20138;SDS011;10230;51.502;10.800;2023-02-28T04:54:17;0.97;;;0.53;;
20138;SDS011;10230;51.502;10.800;2023-02-28T04:56:43;1.83;;;0.60;;
20138;SDS011;10230;51.502;10.800;2023-02-28T04:59:09;2.07;;;0.97;;
20138;SDS011;10230;51.502;10.800;2023-02-28T05:01:34;2.13;;;0.80;;
20138;SDS011;10230;51.502;10.800;2023-02-28T05:04:01;2.77;;;0.70;;
20138;SDS011;10230;51.502;10.800;2023-02-28T05:06:28;1.70;;;0.80;;
20138;SDS011;10230;51.502;10.800;2023-02-28T05:08:56;1.57;;;0.90;;
20138;SDS011;10230;51.502;10.800;2023-02-28T05:11:32;3.00;;;0.70;;
20138;SDS011;10230;51.502;10.800;2023-02-28T05:14:04;2.13;;;0.50;;
20138;SDS011;10230;51.502;10.800;2023-02-28T05:16:31;1.20;;;0.70;;
20138;SDS011;10230;51.502;10.800;2023-02-28T05:18:57;0.67;;;0.50;;
20138;SDS011;10230;51.502;10.800;2023-02-28T05:21:33;0.77;;;0.57;;
20138;SDS011;10230;51.502;10.800;2023-02-28T05:24:04;1.67;;;1.03;;
20138;SDS011;10230;51.502;10.800;2023-02-28T05:26:38;1.33;;;0.53;;
20138;SDS011;10230;51.502;10.800;2023-02-28T05:29:07;3.47;;;1.20;;
20138;SDS011;10230;51.502;10.800;2023-02-28T05:31:34;2.90;;;0.70;;
20138;SDS011;10230;51.502;10.800;2023-02-28T05:34:00;1.20;;;0.80;;
20138;SDS011;10230;51.502;10.800;2023-02-28T05:36:26;2.67;;;1.13;;
20138;SDS011;10230;51.502;10.800;2023-02-28T05:38:52;2.20;;;0.87;;
20138;SDS011;10230;51.502;10.800;2023-02-28T05:41:18;1.03;;;0.80;;
20138;SDS011;10230;51.502;10.800;2023-02-28T05:43:45;1.13;;;0.97;;
20138;SDS011;10230;51.502;10.800;2023-02-28T05:46:11;2.30;;;1.60;;
20138;SDS011;10230;51.502;10.800;2023-02-28T05:48:38;0.70;;;0.60;;
20138;SDS011;10230;51.502;10.800;2023-02-28T05:51:05;1.83;;;1.20;;
20138;SDS011;10230;51.502;10.800;2023-02-28T05:53:31;0.93;;;0.70;;
20138;SDS011;10230;51.502;10.800;2023-02-28T05:55:57;2.50;;;0.90;;
20138;SDS011;10230;51.502;10.800;2023-02-28T05:58:23;3.57;;;1.47;;
20138;SDS011;10230;51.502;10.800;2023-02-28T06:00:56;2.93;;;0.90;;
20138;SDS011;10230;51.502;10.800;2023-02-28T06:03:22;1.37;;;1.03;;
20138;SDS011;10230;51.502;10.800;2023-02-28T06:05:48;2.27;;;0.83;;
20138;SDS011;10230;51.502;10.800;2023-02-28T06:08:15;1.20;;;0.80;;
20138;SDS011;10230;51.502;10.800;2023-02-28T06:10:41;3.30;;;0.80;;
20138;SDS011;10230;51.502;10.800;2023-02-28T06:13:06;0.93;;;0.70;;
20138;SDS011;10230;51.502;10.800;2023-02-28T06:15:32;2.90;;;0.57;;
20138;SDS011;10230;51.502;10.800;2023-02-28T06:17:58;2.47;;;0.70;;
20138;SDS011;10230;51.502;10.800;2023-02-28T06:20:24;0.93;;;0.73;;
20138;SDS011;10230;51.502;10.800;2023-02-28T06:22:54;2.33;;;0.57;;
20138;SDS011;10230;51.502;10.800;2023-02-28T06:25:24;1.30;;;0.83;;
20138;SDS011;10230;51.502;10.800;2023-02-28T06:27:50;1.37;;;0.60;;
20138;SDS011;10230;51.502;10.800;2023-02-28T06:30:16;3.43;;;1.27;;
20138;SDS011;10230;51.502;10.800;2023-02-28T06:32:42;2.57;;;0.93;;
20138;SDS011;10230;51.502;10.800;2023-02-28T06:35:08;0.87;;;0.70;;
20138;SDS011;10230;51.502;10.800;2023-02-28T06:37:33;2.23;;;1.03;;
20138;SDS011;10230;51.502;10.800;2023-02-28T06:39:59;1.87;;;0.97;;
20138;SDS011;10230;51.502;10.800;2023-02-28T06:42:25;1.50;;;1.10;;
20138;SDS011;10230;51.502;10.800;2023-02-28T06:44:57;1.63;;;0.80;;
20138;SDS011;10230;51.502;10.800;2023-02-28T06:47:23;2.83;;;1.03;;
20138;SDS011;10230;51.502;10.800;2023-02-28T06:49:49;1.93;;;0.80;;
20138;SDS011;10230;51.502;10.800;2023-02-28T06:52:15;1.13;;;0.80;;
20138;SDS011;10230;51.502;10.800;2023-02-28T06:54:41;3.70;;;0.97;;
20138;SDS011;10230;51.502;10.800;2023-02-28T06:57:07;1.23;;;1.10;;
20138;SDS011;10230;51.502;10.800;2023-02-28T06:59:32;1.50;;;0.70;;
20138;SDS011;10230;51.502;10.800;2023-02-28T07:01:58;1.17;;;0.97;;
20138;SDS011;10230;51.502;10.800;2023-02-28T07:04:25;1.40;;;0.70;;
20138;SDS011;10230;51.502;10.800;2023-02-28T07:06:50;1.27;;;0.77;;
20138;SDS011;10230;51.502;10.800;2023-02-28T07:09:16;1.53;;;0.90;;
20138;SDS011;10230;51.502;10.800;2023-02-28T07:11:44;1.43;;;1.20;;
20138;SDS011;10230;51.502;10.800;2023-02-28T07:14:09;2.67;;;1.23;;
20138;SDS011;10230;51.502;10.800;2023-02-28T07:16:36;3.80;;;2.33;;
20138;SDS011;10230;51.502;10.800;2023-02-28T07:19:02;5.73;;;1.50;;
20138;SDS011;10230;51.502;10.800;2023-02-28T07:21:27;2.00;;;1.13;;
20138;SDS011;10230;51.502;10.800;2023-02-28T07:23:55;2.57;;;1.47;;
20138;SDS011;10230;51.502;10.800;2023-02-28T07:26:21;5.03;;;2.47;;
20138;SDS011;10230;51.502;10.800;2023-02-28T07:28:48;4.43;;;2.50;;
20138;SDS011;10230;51.502;10.800;2023-02-28T07:31:14;4.53;;;2.07;;
20138;SDS011;10230;51.502;10.800;2023-02-28T07:33:42;3.63;;;1.60;;
20138;SDS011;10230;51.502;10.800;2023-02-28T07:36:12;2.17;;;1.40;;
20138;SDS011;10230;51.502;10.800;2023-02-28T07:38:40;3.43;;;2.10;;
20138;SDS011;10230;51.502;10.800;2023-02-28T07:41:06;3.17;;;1.47;;
20138;SDS011;10230;51.502;10.800;2023-02-28T07:43:33;3.45;;;1.88;;
20138;SDS011;10230;51.502;10.800;2023-02-28T07:46:07;2.70;;;1.45;;
20138;SDS011;10230;51.502;10.800;2023-02-28T07:48:33;3.22;;;1.23;;
20138;SDS011;10230;51.502;10.800;2023-02-28T07:50:59;2.40;;;1.30;;
20138;SDS011;10230;51.502;10.800;2023-02-28T07:53:26;2.42;;;1.65;;
20138;SDS011;10230;51.502;10.800;2023-02-28T07:55:59;1.50;;;1.15;;
20138;SDS011;10230;51.502;10.800;2023-02-28T07:58:26;4.03;;;1.55;;
20138;SDS011;10230;51.502;10.800;2023-02-28T08:00:52;2.15;;;1.20;;
20138;SDS011;10230;51.502;10.800;2023-02-28T08:03:20;1.85;;;1.65;;
20138;SDS011;10230;51.502;10.800;2023-02-28T08:05:46;2.35;;;1.27;;
20138;SDS011;10230;51.502;10.800;2023-02-28T08:08:13;3.22;;;1.20;;
20138;SDS011;10230;51.502;10.800;2023-02-28T08:10:39;2.05;;;1.58;;
20138;SDS011;10230;51.502;10.800;2023-02-28T08:13:05;3.90;;;1.60;;
20138;SDS011;10230;51.502;10.800;2023-02-28T08:15:31;2.13;;;1.38;;
20138;SDS011;10230;51.502;10.800;2023-02-28T08:17:57;6.10;;;2.67;;
20138;SDS011;10230;51.502;10.800;2023-02-28T08:20:24;1.85;;;1.40;;
20138;SDS011;10230;51.502;10.800;2023-02-28T08:22:50;2.40;;;1.40;;
20138;SDS011;10230;51.502;10.800;2023-02-28T08:25:16;2.58;;;1.92;;
20138;SDS011;10230;51.502;10.800;2023-02-28T08:27:43;1.30;;;1.20;;
20138;SDS011;10230;51.502;10.800;2023-02-28T08:30:12;1.35;;;1.20;;
20138;SDS011;10230;51.502;10.800;2023-02-28T08:32:39;3.47;;;1.40;;
20138;SDS011;10230;51.502;10.800;2023-02-28T08:35:05;2.78;;;1.63;;
20138;SDS011;10230;51.502;10.800;2023-02-28T08:37:31;3.15;;;1.63;;
20138;SDS011;10230;51.502;10.800;2023-02-28T08:39:58;1.88;;;1.38;;
20138;SDS011;10230;51.502;10.800;2023-02-28T08:42:24;1.92;;;1.55;;
20138;SDS011;10230;51.502;10.800;2023-02-28T08:44:50;1.77;;;1.55;;
20138;SDS011;10230;51.502;10.800;2023-02-28T08:47:16;1.60;;;1.35;;
20138;SDS011;10230;51.502;10.800;2023-02-28T08:49:43;1.90;;;1.70;;
20138;SDS011;10230;51.502;10.800;2023-02-28T08:52:09;2.13;;;1.75;;
20138;SDS011;10230;51.502;10.800;2023-02-28T08:54:35;3.40;;;1.40;;
20138;SDS011;10230;51.502;10.800;2023-02-28T08:57:01;2.85;;;1.60;;
20138;SDS011;10230;51.502;10.800;2023-02-28T08:59:28;1.88;;;1.60;;
20138;SDS011;10230;51.502;10.800;2023-02-28T09:01:54;2.00;;;1.48;;
20138;SDS011;10230;51.502;10.800;2023-02-28T09:04:21;2.88;;;1.50;;
20138;SDS011;10230;51.502;10.800;2023-02-28T09:06:47;2.00;;;1.40;;
20138;SDS011;10230;51.502;10.800;2023-02-28T09:09:14;2.47;;;1.48;;
20138;SDS011;10230;51.502;10.800;2023-02-28T09:11:40;2.00;;;1.40;;
20138;SDS011;10230;51.502;10.800;2023-02-28T09:14:06;3.30;;;1.40;;
20138;SDS011;10230;51.502;10.800;2023-02-28T09:16:32;2.03;;;1.13;;
20138;SDS011;10230;51.502;10.800;2023-02-28T09:18:58;1.52;;;1.30;;
20138;SDS011;10230;51.502;10.800;2023-02-28T09:21:24;2.03;;;1.52;;
20138;SDS011;10230;51.502;10.800;2023-02-28T09:23:50;1.40;;;1.27;;
20138;SDS011;10230;51.502;10.800;2023-02-28T09:26:17;3.30;;;1.63;;
20138;SDS011;10230;51.502;10.800;2023-02-28T09:28:44;3.22;;;1.83;;
20138;SDS011;10230;51.502;10.800;2023-02-28T09:31:14;2.67;;;1.42;;
20138;SDS011;10230;51.502;10.800;2023-02-28T09:33:40;1.88;;;1.48;;
20138;SDS011;10230;51.502;10.800;2023-02-28T09:36:07;1.60;;;1.30;;
20138;SDS011;10230;51.502;10.800;2023-02-28T09:38:33;2.65;;;1.77;;
20138;SDS011;10230;51.502;10.800;2023-02-28T09:41:03;2.15;;;1.60;;
20138;SDS011;10230;51.502;10.800;2023-02-28T09:43:33;2.35;;;1.60;;
20138;SDS011;10230;51.502;10.800;2023-02-28T09:46:02;2.58;;;1.70;;
20138;SDS011;10230;51.502;10.800;2023-02-28T09:48:32;2.38;;;1.67;;
20138;SDS011;10230;51.502;10.800;2023-02-28T09:51:05;2.97;;;1.48;;
20138;SDS011;10230;51.502;10.800;2023-02-28T09:53:33;2.20;;;1.67;;
20138;SDS011;10230;51.502;10.800;2023-02-28T09:56:21;2.97;;;2.00;;
20138;SDS011;10230;51.502;10.800;2023-02-28T10:01:22;3.63;;;2.58;;
20138;SDS011;10230;51.502;10.800;2023-02-28T10:04:37;3.90;;;2.88;;
20138;SDS011;10230;51.502;10.800;2023-02-28T10:06:40;2.13;;;1.92;;
20138;SDS011;10230;51.502;10.800;2023-02-28T10:09:08;2.60;;;1.90;;
20138;SDS011;10230;51.502;10.800;2023-02-28T10:11:38;4.90;;;2.58;;
20138;SDS011;10230;51.502;10.800;2023-02-28T10:19:14;2.35;;;1.85;;
20138;SDS011;10230;51.502;10.800;2023-02-28T10:21:43;2.08;;;1.55;;
20138;SDS011;10230;51.502;10.800;2023-02-28T10:26:40;2.53;;;1.67;;
20138;SDS011;10230;51.502;10.800;2023-02-28T10:29:09;3.03;;;1.70;;
20138;SDS011;10230;51.502;10.800;2023-02-28T10:31:35;2.65;;;1.75;;
20138;SDS011;10230;51.502;10.800;2023-02-28T10:34:01;1.38;;;1.27;;
20138;SDS011;10230;51.502;10.800;2023-02-28T10:36:29;2.60;;;1.70;;
20138;SDS011;10230;51.502;10.800;2023-02-28T10:38:55;2.03;;;1.52;;
20138;SDS011;10230;51.502;10.800;2023-02-28T10:41:28;9.25;;;3.65;;
20138;SDS011;10230;51.502;10.800;2023-02-28T10:44:17;2.40;;;1.50;;
20138;SDS011;10230;51.502;10.800;2023-02-28T10:46:46;1.88;;;1.40;;
20138;SDS011;10230;51.502;10.800;2023-02-28T10:49:13;1.98;;;1.38;;
20138;SDS011;10230;51.502;10.800;2023-02-28T10:51:52;3.35;;;1.60;;
20138;SDS011;10230;51.502;10.800;2023-02-28T10:54:19;2.47;;;1.40;;
20138;SDS011;10230;51.502;10.800;2023-02-28T10:59:32;2.03;;;1.80;;
20138;SDS011;10230;51.502;10.800;2023-02-28T11:01:58;5.30;;;3.17;;
20138;SDS011;10230;51.502;10.800;2023-02-28T11:07:01;2.33;;;2.13;;
20138;SDS011;10230;51.502;10.800;2023-02-28T11:09:44;1.90;;;1.70;;
20138;SDS011;10230;51.502;10.800;2023-02-28T11:12:20;2.33;;;1.90;;
20138;SDS011;10230;51.502;10.800;2023-02-28T11:14:48;2.17;;;1.75;;
20138;SDS011;10230;51.502;10.800;2023-02-28T11:17:22;2.33;;;2.05;;
20138;SDS011;10230;51.502;10.800;2023-02-28T11:19:56;1.65;;;1.55;;
20138;SDS011;10230;51.502;10.800;2023-02-28T11:22:24;3.13;;;1.83;;
20138;SDS011;10230;51.502;10.800;2023-02-28T11:24:53;2.88;;;1.92;;
20138;SDS011;10230;51.502;10.800;2023-02-28T11:27:40;1.65;;;1.48;;
20138;SDS011;10230;51.502;10.800;2023-02-28T11:30:26;2.30;;;1.60;;
20138;SDS011;10230;51.502;10.800;2023-02-28T11:32:53;2.95;;;2.05;;
20138;SDS011;10230;51.502;10.800;2023-02-28T11:37:51;6.60;;;2.53;;
20138;SDS011;10230;51.502;10.800;2023-02-28T11:40:18;1.90;;;1.70;;
20138;SDS011;10230;51.502;10.800;2023-02-28T11:48:15;2.38;;;2.15;;
20138;SDS011;10230;51.502;10.800;2023-02-28T11:58:31;2.40;;;1.98;;
20138;SDS011;10230;51.502;10.800;2023-02-28T12:01:04;2.08;;;1.88;;
20138;SDS011;10230;51.502;10.800;2023-02-28T12:11:07;2.70;;;1.85;;
20138;SDS011;10230;51.502;10.800;2023-02-28T12:13:54;2.38;;;1.70;;
20138;SDS011;10230;51.502;10.800;2023-02-28T12:16:47;1.67;;;1.58;;
20138;SDS011;10230;51.502;10.800;2023-02-28T12:19:27;2.53;;;1.88;;
20138;SDS011;10230;51.502;10.800;2023-02-28T12:22:00;2.15;;;1.60;;
20138;SDS011;10230;51.502;10.800;2023-02-28T12:27:15;2.55;;;2.08;;
20138;SDS011;10230;51.502;10.800;2023-02-28T12:32:39;2.92;;;2.10;;
20138;SDS011;10230;51.502;10.800;2023-02-28T12:35:11;3.42;;;2.47;;
20138;SDS011;10230;51.502;10.800;2023-02-28T12:37:40;4.47;;;3.70;;
20138;SDS011;10230;51.502;10.800;2023-02-28T12:43:04;3.22;;;2.08;;
20138;SDS011;10230;51.502;10.800;2023-02-28T12:45:38;3.00;;;1.85;;
20138;SDS011;10230;51.502;10.800;2023-02-28T12:48:06;2.50;;;2.03;;
20138;SDS011;10230;51.502;10.800;2023-02-28T12:50:33;2.90;;;2.00;;
20138;SDS011;10230;51.502;10.800;2023-02-28T12:53:02;2.13;;;1.92;;
20138;SDS011;10230;51.502;10.800;2023-02-28T12:55:31;2.08;;;1.88;;
20138;SDS011;10230;51.502;10.800;2023-02-28T12:58:07;2.70;;;1.90;;
20138;SDS011;10230;51.502;10.800;2023-02-28T13:00:36;3.92;;;2.10;;
20138;SDS011;10230;51.502;10.800;2023-02-28T13:03:07;3.10;;;2.05;;
20138;SDS011;10230;51.502;10.800;2023-02-28T13:05:42;2.67;;;2.20;;
20138;SDS011;10230;51.502;10.800;2023-02-28T13:11:25;2.80;;;1.92;;
20138;SDS011;10230;51.502;10.800;2023-02-28T13:14:03;2.40;;;2.00;;
20138;SDS011;10230;51.502;10.800;2023-02-28T13:16:51;4.15;;;2.25;;
20138;SDS011;10230;51.502;10.800;2023-02-28T13:19:20;3.70;;;2.40;;
20138;SDS011;10230;51.502;10.800;2023-02-28T13:21:48;5.28;;;2.38;;
20138;SDS011;10230;51.502;10.800;2023-02-28T13:29:36;3.10;;;2.30;;
20138;SDS011;10230;51.502;10.800;2023-02-28T13:34:40;4.10;;;2.22;;
20138;SDS011;10230;51.502;10.800;2023-02-28T13:42:51;5.53;;;3.17;;
20138;SDS011;10230;51.502;10.800;2023-02-28T13:45:21;3.45;;;2.40;;
20138;SDS011;10230;51.502;10.800;2023-02-28T13:47:52;3.70;;;2.67;;
20138;SDS011;10230;51.502;10.800;2023-02-28T14:01:39;4.37;;;2.70;;
20138;SDS011;10230;51.502;10.800;2023-02-28T14:07:09;4.53;;;2.60;;
20138;SDS011;10230;51.502;10.800;2023-02-28T14:10:06;4.83;;;3.20;;
20138;SDS011;10230;51.502;10.800;2023-02-28T14:17:52;4.90;;;2.93;;
20138;SDS011;10230;51.502;10.800;2023-02-28T14:20:20;2.03;;;1.43;;
20138;SDS011;10230;51.502;10.800;2023-02-28T14:22:52;4.27;;;2.20;;
20138;SDS011;10230;51.502;10.800;2023-02-28T14:25:33;2.97;;;1.77;;
20138;SDS011;10230;51.502;10.800;2023-02-28T14:31:07;3.77;;;2.57;;
20138;SDS011;10230;51.502;10.800;2023-02-28T14:39:00;3.13;;;2.10;;
20138;SDS011;10230;51.502;10.800;2023-02-28T14:41:33;2.50;;;1.90;;
20138;SDS011;10230;51.502;10.800;2023-02-28T14:44:19;3.03;;;1.97;;
20138;SDS011;10230;51.502;10.800;2023-02-28T14:46:50;3.10;;;2.00;;
20138;SDS011;10230;51.502;10.800;2023-02-28T14:52:23;5.70;;;2.90;;
20138;SDS011;10230;51.502;10.800;2023-02-28T14:54:53;5.33;;;2.63;;
20138;SDS011;10230;51.502;10.800;2023-02-28T14:57:21;3.80;;;2.03;;
20138;SDS011;10230;51.502;10.800;2023-02-28T15:00:00;5.80;;;3.00;;
20138;SDS011;10230;51.502;10.800;2023-02-28T15:02:38;2.70;;;2.00;;
20138;SDS011;10230;51.502;10.800;2023-02-28T15:05:19;2.43;;;2.17;;
20138;SDS011;10230;51.502;10.800;2023-02-28T15:08:06;3.77;;;3.33;;
20138;SDS011;10230;51.502;10.800;2023-02-28T15:10:39;7.10;;;2.77;;
20138;SDS011;10230;51.502;10.800;2023-02-28T15:13:13;4.03;;;2.20;;
20138;SDS011;10230;51.502;10.800;2023-02-28T15:18:14;4.30;;;2.30;;
20138;SDS011;10230;51.502;10.800;2023-02-28T15:20:50;4.73;;;2.50;;
20138;SDS011;10230;51.502;10.800;2023-02-28T15:23:16;2.77;;;1.90;;
20138;SDS011;10230;51.502;10.800;2023-02-28T15:25:43;2.83;;;1.90;;
20138;SDS011;10230;51.502;10.800;2023-02-28T15:28:11;4.33;;;2.40;;
20138;SDS011;10230;51.502;10.800;2023-02-28T15:30:54;4.00;;;2.00;;
20138;SDS011;10230;51.502;10.800;2023-02-28T15:33:26;3.20;;;2.13;;
20138;SDS011;10230;51.502;10.800;2023-02-28T15:36:15;3.00;;;1.80;;
20138;SDS011;10230;51.502;10.800;2023-02-28T15:38:40;5.50;;;2.60;;
20138;SDS011;10230;51.502;10.800;2023-02-28T15:41:27;3.67;;;2.00;;
20138;SDS011;10230;51.502;10.800;2023-02-28T15:47:34;3.67;;;1.93;;
20138;SDS011;10230;51.502;10.800;2023-02-28T15:52:17;3.63;;;2.03;;
20138;SDS011;10230;51.502;10.800;2023-02-28T15:54:45;2.33;;;1.83;;
20138;SDS011;10230;51.502;10.800;2023-02-28T15:57:30;3.57;;;2.07;;
20138;SDS011;10230;51.502;10.800;2023-02-28T15:59:59;3.33;;;1.93;;
20138;SDS011;10230;51.502;10.800;2023-02-28T16:02:30;3.33;;;1.97;;
20138;SDS011;10230;51.502;10.800;2023-02-28T16:07:35;3.00;;;1.93;;
20138;SDS011;10230;51.502;10.800;2023-02-28T16:10:05;5.70;;;2.63;;
20138;SDS011;10230;51.502;10.800;2023-02-28T16:12:33;8.37;;;3.07;;
20138;SDS011;10230;51.502;10.800;2023-02-28T16:15:02;3.23;;;2.37;;
20138;SDS011;10230;51.502;10.800;2023-02-28T16:17:42;4.77;;;2.33;;
20138;SDS011;10230;51.502;10.800;2023-02-28T16:20:19;4.17;;;2.30;;
20138;SDS011;10230;51.502;10.800;2023-02-28T16:22:49;5.37;;;2.83;;
20138;SDS011;10230;51.502;10.800;2023-02-28T16:25:19;3.60;;;2.30;;
20138;SDS011;10230;51.502;10.800;2023-02-28T16:27:49;4.67;;;2.73;;
20138;SDS011;10230;51.502;10.800;2023-02-28T16:30:23;4.07;;;2.37;;
20138;SDS011;10230;51.502;10.800;2023-02-28T16:32:50;3.50;;;1.93;;
20138;SDS011;10230;51.502;10.800;2023-02-28T16:35:19;3.87;;;2.27;;
20138;SDS011;10230;51.502;10.800;2023-02-28T16:37:45;5.13;;;2.43;;
20138;SDS011;10230;51.502;10.800;2023-02-28T16:40:15;8.90;;;4.53;;
20138;SDS011;10230;51.502;10.800;2023-02-28T16:42:46;4.07;;;2.43;;
20138;SDS011;10230;51.502;10.800;2023-02-28T16:45:17;3.60;;;2.10;;
20138;SDS011;10230;51.502;10.800;2023-02-28T16:47:45;3.23;;;2.10;;
20138;SDS011;10230;51.502;10.800;2023-02-28T16:50:12;4.27;;;2.17;;
20138;SDS011;10230;51.502;10.800;2023-02-28T16:52:41;4.13;;;2.40;;
20138;SDS011;10230;51.502;10.800;2023-02-28T16:55:09;5.03;;;2.80;;
20138;SDS011;10230;51.502;10.800;2023-02-28T16:57:35;4.37;;;2.23;;
20138;SDS011;10230;51.502;10.800;2023-02-28T17:00:02;5.63;;;2.13;;
20138;SDS011;10230;51.502;10.800;2023-02-28T17:02:30;3.70;;;2.30;;
20138;SDS011;10230;51.502;10.800;2023-02-28T17:04:55;3.50;;;2.37;;
20138;SDS011;10230;51.502;10.800;2023-02-28T17:07:21;3.23;;;2.30;;
20138;SDS011;10230;51.502;10.800;2023-02-28T17:09:47;4.90;;;2.63;;
20138;SDS011;10230;51.502;10.800;2023-02-28T17:12:12;2.70;;;1.90;;
20138;SDS011;10230;51.502;10.800;2023-02-28T17:14:39;3.87;;;2.07;;
20138;SDS011;10230;51.502;10.800;2023-02-28T17:17:05;3.67;;;2.63;;
20138;SDS011;10230;51.502;10.800;2023-02-28T17:19:31;3.63;;;2.30;;
20138;SDS011;10230;51.502;10.800;2023-02-28T17:21:58;4.40;;;2.47;;
20138;SDS011;10230;51.502;10.800;2023-02-28T17:24:25;4.53;;;2.70;;
20138;SDS011;10230;51.502;10.800;2023-02-28T17:26:51;3.80;;;2.10;;
20138;SDS011;10230;51.502;10.800;2023-02-28T17:29:18;6.83;;;3.07;;
20138;SDS011;10230;51.502;10.800;2023-02-28T17:31:45;4.33;;;2.30;;
20138;SDS011;10230;51.502;10.800;2023-02-28T17:34:11;3.87;;;2.60;;
20138;SDS011;10230;51.502;10.800;2023-02-28T17:36:43;3.20;;;2.33;;
20138;SDS011;10230;51.502;10.800;2023-02-28T17:39:10;3.87;;;2.30;;
20138;SDS011;10230;51.502;10.800;2023-02-28T17:41:38;4.07;;;2.43;;
20138;SDS011;10230;51.502;10.800;2023-02-28T17:44:04;4.70;;;2.50;;
20138;SDS011;10230;51.502;10.800;2023-02-28T17:46:30;6.57;;;3.43;;
20138;SDS011;10230;51.502;10.800;2023-02-28T17:48:57;3.80;;;2.60;;
20138;SDS011;10230;51.502;10.800;2023-02-28T17:51:23;5.60;;;2.50;;
20138;SDS011;10230;51.502;10.800;2023-02-28T17:53:49;5.07;;;2.53;;
20138;SDS011;10230;51.502;10.800;2023-02-28T17:56:17;7.77;;;4.00;;
20138;SDS011;10230;51.502;10.800;2023-02-28T17:58:44;5.37;;;2.77;;
20138;SDS011;10230;51.502;10.800;2023-02-28T18:01:10;5.53;;;2.97;;
20138;SDS011;10230;51.502;10.800;2023-02-28T18:03:36;3.63;;;2.40;;
20138;SDS011;10230;51.502;10.800;2023-02-28T18:06:03;3.87;;;2.30;;
20138;SDS011;10230;51.502;10.800;2023-02-28T18:08:29;5.37;;;2.20;;
20138;SDS011;10230;51.502;10.800;2023-02-28T18:10:56;3.80;;;2.37;;
20138;SDS011;10230;51.502;10.800;2023-02-28T18:13:21;4.40;;;2.50;;
20138;SDS011;10230;51.502;10.800;2023-02-28T18:15:47;4.97;;;2.53;;
20138;SDS011;10230;51.502;10.800;2023-02-28T18:18:13;5.07;;;2.33;;
20138;SDS011;10230;51.502;10.800;2023-02-28T18:20:40;4.13;;;2.50;;
20138;SDS011;10230;51.502;10.800;2023-02-28T18:23:06;4.33;;;2.83;;
20138;SDS011;10230;51.502;10.800;2023-02-28T18:25:32;5.57;;;2.67;;
20138;SDS011;10230;51.502;10.800;2023-02-28T18:27:58;4.83;;;2.80;;
20138;SDS011;10230;51.502;10.800;2023-02-28T18:30:25;5.53;;;3.03;;
20138;SDS011;10230;51.502;10.800;2023-02-28T18:32:55;4.93;;;3.13;;
20138;SDS011;10230;51.502;10.800;2023-02-28T18:35:22;6.80;;;3.30;;
20138;SDS011;10230;51.502;10.800;2023-02-28T18:40:30;9.27;;;3.20;;
20138;SDS011;10230;51.502;10.800;2023-02-28T18:42:56;8.90;;;3.13;;
20138;SDS011;10230;51.502;10.800;2023-02-28T18:45:21;6.83;;;3.67;;
20138;SDS011;10230;51.502;10.800;2023-02-28T18:47:47;6.37;;;3.17;;
20138;SDS011;10230;51.502;10.800;2023-02-28T18:50:13;6.73;;;3.20;;
20138;SDS011;10230;51.502;10.800;2023-02-28T18:52:38;7.70;;;3.17;;
20138;SDS011;10230;51.502;10.800;2023-02-28T18:55:04;6.43;;;3.10;;
20138;SDS011;10230;51.502;10.800;2023-02-28T18:57:32;5.30;;;3.00;;
20138;SDS011;10230;51.502;10.800;2023-02-28T18:59:58;7.00;;;3.53;;
20138;SDS011;10230;51.502;10.800;2023-02-28T19:02:24;4.47;;;2.90;;
20138;SDS011;10230;51.502;10.800;2023-02-28T19:04:49;6.93;;;3.17;;
20138;SDS011;10230;51.502;10.800;2023-02-28T19:07:16;4.47;;;2.33;;
20138;SDS011;10230;51.502;10.800;2023-02-28T19:09:41;5.57;;;3.07;;
20138;SDS011;10230;51.502;10.800;2023-02-28T19:12:07;6.00;;;3.00;;
20138;SDS011;10230;51.502;10.800;2023-02-28T19:14:33;8.03;;;3.77;;
20138;SDS011;10230;51.502;10.800;2023-02-28T19:16:59;5.67;;;2.97;;
20138;SDS011;10230;51.502;10.800;2023-02-28T19:19:25;6.87;;;4.73;;
20138;SDS011;10230;51.502;10.800;2023-02-28T19:21:51;4.53;;;2.80;;
20138;SDS011;10230;51.502;10.800;2023-02-28T19:24:17;4.70;;;3.27;;
20138;SDS011;10230;51.502;10.800;2023-02-28T19:26:43;4.43;;;2.47;;
20138;SDS011;10230;51.502;10.800;2023-02-28T19:29:08;5.57;;;3.07;;
20138;SDS011;10230;51.502;10.800;2023-02-28T19:31:34;5.63;;;2.50;;
20138;SDS011;10230;51.502;10.800;2023-02-28T19:34:00;4.13;;;2.63;;
20138;SDS011;10230;51.502;10.800;2023-02-28T19:36:26;6.00;;;3.97;;
20138;SDS011;10230;51.502;10.800;2023-02-28T19:38:52;3.33;;;2.70;;
20138;SDS011;10230;51.502;10.800;2023-02-28T19:41:18;4.87;;;2.80;;
20138;SDS011;10230;51.502;10.800;2023-02-28T19:43:44;8.27;;;2.90;;
20138;SDS011;10230;51.502;10.800;2023-02-28T19:46:11;5.67;;;3.23;;
20138;SDS011;10230;51.502;10.800;2023-02-28T19:48:37;7.37;;;3.20;;
20138;SDS011;10230;51.502;10.800;2023-02-28T19:51:07;7.37;;;2.73;;
20138;SDS011;10230;51.502;10.800;2023-02-28T19:53:35;6.43;;;3.33;;
20138;SDS011;10230;51.502;10.800;2023-02-28T19:56:01;5.33;;;2.67;;
20138;SDS011;10230;51.502;10.800;2023-02-28T19:58:31;4.77;;;2.40;;
20138;SDS011;10230;51.502;10.800;2023-02-28T20:00:57;5.20;;;2.90;;
20138;SDS011;10230;51.502;10.800;2023-02-28T20:03:29;4.97;;;2.57;;
20138;SDS011;10230;51.502;10.800;2023-02-28T20:06:01;3.97;;;3.13;;
20138;SDS011;10230;51.502;10.800;2023-02-28T20:08:31;4.73;;;2.20;;
20138;SDS011;10230;51.502;10.800;2023-02-28T20:11:07;5.70;;;2.70;;